Terminal Aerodrome Forecast
Issued by NWS Upton, NY

Home | Current Version | Previous Version | Text Only | Print | Product List | Glossary On
Versions: 1 2 3 4 5 6 7 8 9 10 11 12 13 14 15 16 17 18 19 20 21 22 23 24 25 26 27 28 29 30 31 32 33 34
000
FTUS41 KOKX 011943 AAA
TAFJFK
TAF AMD
KJFK 011943Z 0120/0224 04010KT P6SM -DZ OVC010
     FM020100 05009KT 6SM -DZ BR OVC008
      TEMPO 0212/0216 4SM -DZ BR
     FM021600 07007KT 4SM BR OVC010
     FM021900 09008KT 4SM BR OVC015=

USA.gov is the U.S. government's official web portal to all federal, state and local government web resources and services.